Time;durP1;ratioP1;P1;durP2;ratioP2;P2;SDS_P1;SDS_P2;PMS_P1;PMS_P2;Temp;Humidity;BMP_temperature;BMP_pressure;BME280_temperature;BME280_humidity;BME280_pressure;Samples;Min_cycle;Max_cycle;Signal;HPM_P1;HPM_P2
2021/09/06 00:02:18;;;;;;;3.13;2.83;;;12.20;81.70;;;;;;4927653;28;20393;-69
2021/09/06 00:04:43;;;;;;;4.95;3.40;;;12.20;82.20;;;;;;4919347;29;20032;-68
2021/09/06 00:07:09;;;;;;;4.53;3.10;;;12.10;82.60;;;;;;4927651;29;20035;-68
2021/09/06 00:09:35;;;;;;;3.70;3.30;;;12.10;82.30;;;;;;4928803;29;20118;-68
2021/09/06 00:12:01;;;;;;;4.25;3.28;;;12.10;81.70;;;;;;4923085;29;20045;-68
2021/09/06 00:14:26;;;;;;;3.70;3.00;;;12.10;82.10;;;;;;4933476;28;20049;-68
2021/09/06 00:16:52;;;;;;;4.10;2.58;;;12.00;82.10;;;;;;4923778;29;21689;-68
2021/09/06 00:19:17;;;;;;;3.60;3.08;;;12.00;82.10;;;;;;4927036;29;20031;-69
2021/09/06 00:21:43;;;;;;;3.42;2.70;;;12.00;82.90;;;;;;4925422;29;20047;-68
2021/09/06 00:24:09;;;;;;;3.55;3.08;;;11.90;82.30;;;;;;4919829;29;20064;-68
2021/09/06 00:26:35;;;;;;;3.45;2.83;;;11.90;82.20;;;;;;4919657;29;20043;-68
2021/09/06 00:29:00;;;;;;;3.53;2.38;;;11.90;82.10;;;;;;4944836;28;20027;-68
2021/09/06 00:31:26;;;;;;;3.15;2.88;;;11.80;80.60;;;;;;4927343;28;20036;-69
2021/09/06 00:33:52;;;;;;;5.38;3.67;;;11.70;82.30;;;;;;4932014;29;20062;-68
2021/09/06 00:36:18;;;;;;;5.07;3.78;;;11.70;82.80;;;;;;4927217;29;20044;-68
2021/09/06 00:38:44;;;;;;;5.55;3.90;;;11.80;83.10;;;;;;4931235;29;20030;-68
2021/09/06 00:41:09;;;;;;;4.03;3.28;;;11.80;84.40;;;;;;4938878;29;20023;-68
2021/09/06 00:43:36;;;;;;;5.43;3.22;;;11.70;83.60;;;;;;4927604;29;20103;-68
2021/09/06 00:46:03;;;;;;;3.20;2.90;;;11.80;84.10;;;;;;4919852;29;20024;-68
2021/09/06 00:48:30;;;;;;;3.83;3.13;;;11.70;83.30;;;;;;4932147;29;20099;-68
2021/09/06 00:50:56;;;;;;;3.80;3.03;;;11.80;83.50;;;;;;4927841;28;20058;-68
2021/09/06 00:53:23;;;;;;;3.42;2.90;;;11.80;83.50;;;;;;4931302;29;20143;-68
2021/09/06 00:55:50;;;;;;;1.88;1.70;;;11.70;83.10;;;;;;4924754;29;20099;-68
2021/09/06 00:58:16;;;;;;;2.45;2.13;;;11.70;81.70;;;;;;4927673;29;20031;-68
2021/09/06 01:00:42;;;;;;;2.03;1.88;;;11.50;81.60;;;;;;4924852;28;20401;-68
2021/09/06 01:03:08;;;;;;;1.33;1.23;;;11.50;81.50;;;;;;4930980;28;20034;-68
2021/09/06 01:05:33;;;;;;;5.05;2.70;;;11.40;81.40;;;;;;4932142;29;20036;-68
2021/09/06 01:07:59;;;;;;;3.72;2.80;;;11.40;82.40;;;;;;4927596;29;20035;-69
2021/09/06 01:10:25;;;;;;;4.47;2.72;;;11.40;83.80;;;;;;4931615;29;20019;-70
2021/09/06 01:12:50;;;;;;;4.55;3.25;;;11.40;83.70;;;;;;4928323;28;20548;-68
2021/09/06 01:15:16;;;;;;;5.45;3.30;;;11.40;83.80;;;;;;4924480;29;20278;-68
2021/09/06 01:17:43;;;;;;;3.83;3.17;;;11.40;84.30;;;;;;4931433;29;20043;-68
2021/09/06 01:20:09;;;;;;;5.15;3.70;;;11.40;83.90;;;;;;4931230;29;20055;-68
2021/09/06 01:22:35;;;;;;;4.93;3.40;;;11.40;84.10;;;;;;4927642;29;20102;-68
2021/09/06 01:25:02;;;;;;;5.03;3.55;;;11.30;83.70;;;;;;4924493;29;20055;-69
2021/09/06 01:27:28;;;;;;;6.25;3.30;;;11.30;85.20;;;;;;4924843;29;20485;-68
2021/09/06 01:29:54;;;;;;;4.80;3.40;;;11.30;84.80;;;;;;4926253;29;20043;-68
2021/09/06 01:32:20;;;;;;;5.40;3.60;;;11.30;84.30;;;;;;4930042;28;20090;-67
2021/09/06 01:34:46;;;;;;;4.30;3.03;;;11.20;85.00;;;;;;4928344;29;20404;-67
2021/09/06 01:37:11;;;;;;;4.57;3.13;;;11.20;84.70;;;;;;4920636;29;20032;-68
2021/09/06 01:39:37;;;;;;;3.67;2.75;;;11.20;84.60;;;;;;4929164;28;20435;-68
2021/09/06 01:42:03;;;;;;;2.47;2.28;;;11.20;84.10;;;;;;4931261;29;20028;-68
2021/09/06 01:44:29;;;;;;;3.33;2.53;;;11.10;82.30;;;;;;4925818;29;20512;-68
2021/09/06 01:46:55;;;;;;;2.97;2.53;;;11.00;82.30;;;;;;4926938;29;20031;-68
2021/09/06 01:49:20;;;;;;;4.78;2.42;;;10.90;81.80;;;;;;4922274;29;20039;-68
2021/09/06 01:51:46;;;;;;;3.83;3.10;;;10.90;82.90;;;;;;4928868;29;20429;-68
2021/09/06 01:54:12;;;;;;;4.30;2.80;;;10.90;84.10;;;;;;4919942;28;20066;-72
2021/09/06 01:56:37;;;;;;;3.05;2.75;;;10.90;84.20;;;;;;4921217;28;20047;-68
2021/09/06 01:59:04;;;;;;;2.25;2.03;;;10.80;83.60;;;;;;4930606;29;20047;-68
2021/09/06 02:01:30;;;;;;;2.67;2.10;;;10.70;83.40;;;;;;4928480;28;20044;-68
2021/09/06 02:03:55;;;;;;;2.20;2.00;;;10.70;83.90;;;;;;4928535;29;20114;-69
2021/09/06 02:06:21;;;;;;;2.15;1.95;;;10.70;84.00;;;;;;4925114;28;20420;-68
2021/09/06 02:08:47;;;;;;;2.50;2.30;;;10.60;83.60;;;;;;4930046;29;20034;-68
2021/09/06 02:11:13;;;;;;;4.40;2.42;;;10.60;84.60;;;;;;4932661;28;20032;-68
2021/09/06 02:13:39;;;;;;;2.88;2.40;;;10.60;85.10;;;;;;4925003;29;23016;-68
2021/09/06 02:16:04;;;;;;;2.60;2.40;;;10.70;84.80;;;;;;4926680;29;20032;-68
2021/09/06 02:18:30;;;;;;;3.65;2.40;;;10.70;84.40;;;;;;4932213;29;20052;-68
2021/09/06 02:20:56;;;;;;;3.58;2.70;;;10.70;84.20;;;;;;4929998;29;20397;-68
2021/09/06 02:23:22;;;;;;;4.38;2.90;;;10.70;84.00;;;;;;4930164;29;20491;-68
2021/09/06 02:25:47;;;;;;;4.65;3.03;;;10.70;84.00;;;;;;4922934;28;20372;-68
2021/09/06 02:28:13;;;;;;;3.70;2.95;;;10.70;83.70;;;;;;4925161;29;20028;-68
2021/09/06 02:30:39;;;;;;;3.08;2.75;;;10.70;84.30;;;;;;4927081;28;20039;-68
2021/09/06 02:33:04;;;;;;;4.07;2.65;;;10.70;84.20;;;;;;4928633;29;20031;-68
2021/09/06 02:35:30;;;;;;;3.70;3.03;;;10.70;84.20;;;;;;4927982;29;20027;-68
2021/09/06 02:37:56;;;;;;;3.90;3.38;;;10.70;84.30;;;;;;4919905;29;20028;-68
2021/09/06 02:40:22;;;;;;;4.45;3.30;;;10.70;84.80;;;;;;4930990;29;20048;-68
2021/09/06 02:42:48;;;;;;;5.05;3.75;;;10.70;85.30;;;;;;4927845;29;20110;-67
2021/09/06 02:45:14;;;;;;;4.72;3.28;;;10.70;86.00;;;;;;4928394;28;20415;-68
2021/09/06 02:47:46;;;;;;;6.07;4.03;;;10.60;86.10;;;;;;4921745;28;20126;-67
2021/09/06 02:50:12;;;;;;;4.25;3.30;;;10.60;85.80;;;;;;4919405;29;20036;-68
2021/09/06 02:52:38;;;;;;;4.20;3.10;;;10.60;86.50;;;;;;4915484;29;22255;-68
2021/09/06 02:55:04;;;;;;;4.05;3.33;;;10.60;85.80;;;;;;4913786;29;20048;-68
2021/09/06 02:57:30;;;;;;;3.35;2.88;;;10.60;86.30;;;;;;4917612;29;20032;-68
2021/09/06 02:59:55;;;;;;;3.20;2.80;;;10.60;86.10;;;;;;4917375;29;20083;-68
2021/09/06 03:02:21;;;;;;;3.97;2.60;;;10.50;85.40;;;;;;4916974;28;20036;-68
2021/09/06 03:04:47;;;;;;;2.80;2.33;;;10.40;85.60;;;;;;4917164;29;20035;-67
2021/09/06 03:07:13;;;;;;;3.97;2.80;;;10.40;85.50;;;;;;4915823;29;20401;-68
2021/09/06 03:09:38;;;;;;;2.65;2.40;;;10.40;85.40;;;;;;4918588;28;20043;-68
2021/09/06 03:12:04;;;;;;;2.58;2.17;;;10.30;85.20;;;;;;4918303;29;20035;-68
2021/09/06 03:14:30;;;;;;;3.55;2.67;;;10.30;85.30;;;;;;4916223;29;20036;-68
2021/09/06 03:16:55;;;;;;;5.00;2.58;;;10.30;85.20;;;;;;4918409;29;20050;-68
2021/09/06 03:19:21;;;;;;;3.85;2.53;;;10.30;84.00;;;;;;4918656;28;20042;-68
2021/09/06 03:21:47;;;;;;;4.55;3.08;;;10.30;84.60;;;;;;4917797;29;20068;-70
2021/09/06 03:24:12;;;;;;;3.90;3.10;;;10.30;84.80;;;;;;4917347;29;20086;-67
2021/09/06 03:26:38;;;;;;;4.50;3.33;;;10.30;85.20;;;;;;4915733;29;20044;-68
2021/09/06 03:29:04;;;;;;;4.07;3.10;;;10.30;86.40;;;;;;4918024;29;20051;-68
2021/09/06 03:31:32;;;;;;;4.30;3.28;;;10.30;85.90;;;;;;4914728;28;20035;-68
2021/09/06 03:33:59;;;;;;;6.95;3.40;;;10.30;86.20;;;;;;4919907;29;20043;-68
2021/09/06 03:36:25;;;;;;;3.33;3.00;;;10.30;86.40;;;;;;4917502;29;20028;-68
2021/09/06 03:38:51;;;;;;;3.70;3.17;;;10.30;85.60;;;;;;4916181;29;20039;-68
2021/09/06 03:41:18;;;;;;;3.28;2.83;;;10.20;84.80;;;;;;4917890;29;20035;-68
2021/09/06 03:43:44;;;;;;;4.05;3.03;;;10.30;85.00;;;;;;4916763;29;20047;-68
2021/09/06 03:46:09;;;;;;;4.93;3.80;;;10.30;85.00;;;;;;4915684;29;20031;-67
2021/09/06 03:48:35;;;;;;;3.25;2.90;;;10.20;85.50;;;;;;4917950;29;20374;-68
2021/09/06 03:51:01;;;;;;;2.20;2.08;;;10.20;84.60;;;;;;4915839;29;20028;-68
2021/09/06 03:53:27;;;;;;;2.65;2.28;;;10.00;83.90;;;;;;4914381;29;20039;-67
2021/09/06 03:55:52;;;;;;;2.45;2.25;;;10.00;85.10;;;;;;4913096;29;20047;-67
2021/09/06 03:58:18;;;;;;;3.67;2.65;;;10.10;85.00;;;;;;4916330;29;20036;-68
2021/09/06 04:00:43;;;;;;;2.92;2.10;;;10.10;85.30;;;;;;4916310;28;20040;-68
2021/09/06 04:03:09;;;;;;;3.10;1.90;;;10.00;83.80;;;;;;4915482;29;20040;-68
2021/09/06 04:05:35;;;;;;;2.97;2.20;;;9.80;84.20;;;;;;4914438;28;20078;-68
2021/09/06 04:08:01;;;;;;;1.65;1.55;;;9.80;84.40;;;;;;4917617;29;20047;-68
2021/09/06 04:10:26;;;;;;;2.60;2.40;;;9.80;84.50;;;;;;4934047;29;20510;-67
2021/09/06 04:12:52;;;;;;;5.13;2.78;;;9.80;84.60;;;;;;4921983;29;20024;-67
2021/09/06 04:15:18;;;;;;;4.18;2.72;;;9.90;85.10;;;;;;4923294;29;20035;-67
2021/09/06 04:17:43;;;;;;;3.38;2.90;;;9.90;85.00;;;;;;4917036;29;20075;-68
2021/09/06 04:20:10;;;;;;;2.83;2.38;;;9.90;85.50;;;;;;4922826;29;20040;-68
2021/09/06 04:22:38;;;;;;;4.60;2.47;;;9.90;85.30;;;;;;4921000;28;20059;-68
2021/09/06 04:25:04;;;;;;;2.65;2.38;;;9.80;85.00;;;;;;4918212;29;20051;-68
2021/09/06 04:27:30;;;;;;;4.30;2.47;;;9.80;85.50;;;;;;4920421;29;20028;-68
2021/09/06 04:29:56;;;;;;;2.67;2.47;;;9.80;85.10;;;;;;4920485;29;20090;-68
2021/09/06 04:32:21;;;;;;;4.97;2.97;;;9.80;85.20;;;;;;4918651;28;20753;-68
2021/09/06 04:34:47;;;;;;;7.68;3.28;;;9.80;85.50;;;;;;4920543;29;20516;-68
2021/09/06 04:37:13;;;;;;;3.80;2.60;;;9.80;85.80;;;;;;4918360;29;20378;-67
2021/09/06 04:39:38;;;;;;;2.40;2.20;;;9.70;85.20;;;;;;4916904;29;20039;-68
2021/09/06 04:42:04;;;;;;;3.60;2.55;;;9.80;85.30;;;;;;4914369;29;20027;-67
2021/09/06 04:44:29;;;;;;;2.50;2.13;;;9.70;84.90;;;;;;4916620;29;20036;-69
2021/09/06 04:46:56;;;;;;;1.60;1.52;;;9.60;84.80;;;;;;4917238;29;20142;-68
2021/09/06 04:49:22;;;;;;;2.85;1.60;;;9.50;85.00;;;;;;4916169;29;20027;-68
2021/09/06 04:51:47;;;;;;;2.10;1.90;;;9.50;84.90;;;;;;4914188;29;20034;-67
2021/09/06 04:54:14;;;;;;;2.28;2.08;;;9.50;84.90;;;;;;4919020;29;20059;-68
2021/09/06 04:56:40;;;;;;;5.20;2.40;;;9.50;84.90;;;;;;4914409;29;20039;-68
2021/09/06 04:59:05;;;;;;;7.25;3.08;;;9.50;84.90;;;;;;4917275;29;20028;-67
2021/09/06 05:01:31;;;;;;;6.97;3.40;;;9.50;85.40;;;;;;4916278;28;20048;-68
2021/09/06 05:03:56;;;;;;;4.53;2.97;;;9.60;86.30;;;;;;4919098;29;20158;-68
2021/09/06 05:06:22;;;;;;;7.40;3.80;;;9.60;86.90;;;;;;4918270;29;20039;-68
2021/09/06 05:08:48;;;;;;;5.65;3.38;;;9.60;86.50;;;;;;4919854;29;20047;-68
2021/09/06 05:11:13;;;;;;;7.65;2.90;;;9.60;86.60;;;;;;4917783;29;20036;-67
2021/09/06 05:13:39;;;;;;;3.17;2.65;;;9.60;85.80;;;;;;4919176;29;20079;-68
2021/09/06 05:16:04;;;;;;;2.55;2.28;;;9.60;85.80;;;;;;4917197;29;21554;-68
2021/09/06 05:18:30;;;;;;;2.60;2.03;;;9.50;86.20;;;;;;4919254;28;20600;-67
2021/09/06 05:20:56;;;;;;;3.28;2.42;;;9.60;87.30;;;;;;4921762;28;20492;-68
2021/09/06 05:23:22;;;;;;;2.78;2.40;;;9.60;86.30;;;;;;4918510;28;20039;-68
2021/09/06 05:25:48;;;;;;;3.28;2.65;;;9.60;87.30;;;;;;4917903;29;20147;-68
2021/09/06 05:28:14;;;;;;;2.50;2.28;;;9.60;87.70;;;;;;4919783;29;20028;-68
2021/09/06 05:30:39;;;;;;;2.53;2.33;;;9.70;87.50;;;;;;4916305;28;20051;-68
2021/09/06 05:33:05;;;;;;;4.25;2.33;;;9.70;87.30;;;;;;4918351;29;20055;-67
2021/09/06 05:35:31;;;;;;;2.40;2.20;;;9.70;87.40;;;;;;4919348;29;20036;-68
2021/09/06 05:37:56;;;;;;;2.83;2.42;;;9.70;87.70;;;;;;4920424;29;20394;-68
2021/09/06 05:40:22;;;;;;;2.60;2.40;;;9.70;88.00;;;;;;4915438;29;20127;-68
2021/09/06 05:42:48;;;;;;;3.80;2.72;;;9.70;88.80;;;;;;4913663;29;20028;-68
2021/09/06 05:45:13;;;;;;;3.97;2.83;;;9.80;89.30;;;;;;4914180;29;20370;-68
2021/09/06 05:47:39;;;;;;;4.32;2.72;;;9.80;89.20;;;;;;4910594;29;20138;-67
2021/09/06 05:50:05;;;;;;;3.47;2.90;;;9.80;90.00;;;;;;4916157;29;20036;-68
2021/09/06 05:52:31;;;;;;;4.80;3.33;;;9.90;90.30;;;;;;4915833;29;20412;-68
2021/09/06 05:54:56;;;;;;;4.00;3.08;;;9.90;90.60;;;;;;4917418;29;20067;-68
2021/09/06 05:57:23;;;;;;;4.80;3.63;;;10.00;90.90;;;;;;4918576;29;20038;-68
2021/09/06 05:59:49;;;;;;;6.55;4.10;;;10.00;91.00;;;;;;4917370;29;20090;-68
2021/09/06 06:02:15;;;;;;;5.05;3.63;;;10.10;90.80;;;;;;4917953;28;20576;-68
2021/09/06 06:04:41;;;;;;;7.72;3.70;;;10.20;91.00;;;;;;4919595;29;20060;-67
2021/09/06 06:07:07;;;;;;;6.93;4.45;;;10.20;91.20;;;;;;4917841;29;20036;-68
2021/09/06 06:09:32;;;;;;;6.10;3.80;;;10.20;91.30;;;;;;4917519;29;20055;-68
2021/09/06 06:11:58;;;;;;;8.32;3.97;;;10.30;91.30;;;;;;4919466;29;20047;-68
2021/09/06 06:14:24;;;;;;;11.40;4.32;;;10.40;91.20;;;;;;4925659;29;20417;-67
2021/09/06 06:16:50;;;;;;;7.25;4.28;;;10.40;91.20;;;;;;4922184;29;20043;-68
2021/09/06 06:19:16;;;;;;;5.65;3.63;;;10.50;91.50;;;;;;4927386;29;21564;-68
2021/09/06 06:21:42;;;;;;;5.75;4.20;;;10.60;90.80;;;;;;4920027;28;20042;-67
2021/09/06 06:24:07;;;;;;;8.75;4.38;;;10.70;91.00;;;;;;4918332;29;20043;-68
2021/09/06 06:26:33;;;;;;;6.50;4.00;;;10.80;91.70;;;;;;4917995;29;20035;-68
2021/09/06 06:28:59;;;;;;;6.25;4.53;;;10.90;90.80;;;;;;4918352;29;20481;-68
2021/09/06 06:31:25;;;;;;;7.60;4.57;;;11.00;90.90;;;;;;4915702;28;20477;-68
2021/09/06 06:33:50;;;;;;;7.63;5.20;;;11.00;91.00;;;;;;4918535;29;20024;-68
2021/09/06 06:36:16;;;;;;;5.63;4.40;;;11.10;91.80;;;;;;4916004;29;20054;-68
2021/09/06 06:38:42;;;;;;;8.38;4.90;;;11.20;91.00;;;;;;4916987;29;20028;-68
2021/09/06 06:41:07;;;;;;;9.70;5.40;;;11.30;91.20;;;;;;4917821;29;20039;-68
2021/09/06 06:43:33;;;;;;;9.77;5.40;;;11.40;91.30;;;;;;4919075;29;20635;-68
2021/09/06 06:45:59;;;;;;;14.52;6.32;;;11.50;91.60;;;;;;4919344;29;20028;-68
2021/09/06 06:48:25;;;;;;;8.23;6.03;;;11.60;92.00;;;;;;4917848;29;20030;-68
2021/09/06 06:50:51;;;;;;;10.10;6.10;;;11.70;92.20;;;;;;4917571;29;21144;-68
2021/09/06 06:53:17;;;;;;;9.10;6.68;;;11.80;91.70;;;;;;4917622;29;20114;-68
2021/09/06 06:55:42;;;;;;;11.75;6.53;;;11.90;91.80;;;;;;4918850;29;20042;-68
2021/09/06 06:58:08;;;;;;;9.60;6.05;;;12.00;92.10;;;;;;4918205;29;20149;-71
2021/09/06 07:00:34;;;;;;;16.25;7.47;;;12.10;91.90;;;;;;4915240;28;20078;-68
2021/09/06 07:02:59;;;;;;;11.65;7.72;;;12.20;92.50;;;;;;4915982;29;20043;-68
2021/09/06 07:05:25;;;;;;;11.75;7.70;;;12.30;92.50;;;;;;4923451;29;20027;-68
2021/09/06 07:07:51;;;;;;;15.02;8.60;;;12.40;93.40;;;;;;4928874;28;20110;-68
2021/09/06 07:10:16;;;;;;;14.50;8.70;;;12.60;93.60;;;;;;4931618;29;20020;-68
2021/09/06 07:12:42;;;;;;;14.57;8.68;;;12.70;93.90;;;;;;4928837;29;20536;-68
2021/09/06 07:15:09;;;;;;;13.35;8.75;;;12.80;93.30;;;;;;4924893;29;20035;-68
2021/09/06 07:17:35;;;;;;;15.95;8.82;;;12.90;93.50;;;;;;4930011;29;20523;-68
2021/09/06 07:20:01;;;;;;;15.15;9.45;;;13.10;94.10;;;;;;4928284;29;20039;-68
2021/09/06 07:22:27;;;;;;;13.93;8.73;;;13.30;94.00;;;;;;4925284;29;20465;-68
2021/09/06 07:24:56;;;;;;;14.38;9.13;;;13.40;93.80;;;;;;4927553;29;20036;-68
2021/09/06 07:27:22;;;;;;;15.95;9.68;;;13.60;94.20;;;;;;4929652;29;20030;-68
2021/09/06 07:29:48;;;;;;;18.42;10.38;;;13.70;93.80;;;;;;4929551;29;20039;-68
2021/09/06 07:32:14;;;;;;;16.92;11.02;;;13.90;93.00;;;;;;4926604;28;20086;-68
2021/09/06 07:34:40;;;;;;;15.45;9.60;;;14.10;93.20;;;;;;4929464;29;20102;-68
2021/09/06 07:37:07;;;;;;;17.70;10.52;;;14.20;93.10;;;;;;4929364;29;20476;-68
2021/09/06 07:39:34;;;;;;;18.90;10.90;;;14.30;92.80;;;;;;4927846;29;20059;-68
2021/09/06 07:42:01;;;;;;;21.25;10.80;;;14.40;93.10;;;;;;4929167;29;20027;-68
2021/09/06 07:44:28;;;;;;;23.02;11.35;;;14.60;92.00;;;;;;4931881;29;20035;-68
2021/09/06 07:46:54;;;;;;;18.67;10.68;;;14.70;92.40;;;;;;4927645;29;20103;-68
2021/09/06 07:49:20;;;;;;;17.92;11.15;;;14.80;91.80;;;;;;4926006;29;20020;-68
2021/09/06 07:51:52;;;;;;;19.83;10.82;;;15.00;92.40;;;;;;4929142;29;20413;-68
2021/09/06 07:54:19;;;;;;;15.63;9.77;;;15.10;92.20;;;;;;4935202;28;20034;-68
2021/09/06 07:56:47;;;;;;;19.33;10.65;;;15.30;91.70;;;;;;4940992;29;20200;-68
2021/09/06 07:59:13;;;;;;;21.95;10.68;;;15.50;91.80;;;;;;4928423;29;20035;-68
2021/09/06 08:01:39;;;;;;;15.20;9.98;;;15.50;90.30;;;;;;4934376;28;20055;-68
2021/09/06 08:04:05;;;;;;;17.45;10.20;;;15.60;90.40;;;;;;4935269;29;20023;-68
2021/09/06 08:06:31;;;;;;;15.75;10.75;;;15.80;91.10;;;;;;4931490;28;20035;-69
2021/09/06 08:08:56;;;;;;;16.98;10.57;;;16.00;90.70;;;;;;4933986;29;20103;-68
2021/09/06 08:11:22;;;;;;;18.95;11.15;;;16.10;90.70;;;;;;4929774;28;20083;-69
2021/09/06 08:13:48;;;;;;;17.95;10.40;;;16.30;89.50;;;;;;4924842;29;20609;-69
2021/09/06 08:16:14;;;;;;;18.50;11.73;;;16.40;89.80;;;;;;4928141;29;20027;-69
2021/09/06 08:18:39;;;;;;;19.45;10.68;;;16.60;90.20;;;;;;4932993;28;20043;-69
2021/09/06 08:21:06;;;;;;;21.10;11.38;;;16.70;88.80;;;;;;4932444;29;20046;-68
2021/09/06 08:23:32;;;;;;;19.60;11.57;;;16.90;90.20;;;;;;4932596;29;20030;-68
2021/09/06 08:25:57;;;;;;;18.02;11.82;;;17.00;88.10;;;;;;4936352;29;20031;-68
2021/09/06 08:28:23;;;;;;;19.92;12.60;;;17.10;88.20;;;;;;4933430;29;20039;-68
2021/09/06 08:30:49;;;;;;;21.95;11.77;;;17.30;87.80;;;;;;4935038;28;20052;-68
2021/09/06 08:33:14;;;;;;;25.52;12.05;;;17.40;86.60;;;;;;4928019;29;20031;-69
2021/09/06 08:35:41;;;;;;;17.77;11.50;;;17.50;87.00;;;;;;4930912;29;20633;-67
2021/09/06 08:38:07;;;;;;;24.13;14.25;;;17.60;88.10;;;;;;4930474;29;20392;-68
2021/09/06 08:40:33;;;;;;;19.67;12.20;;;17.80;87.40;;;;;;4929752;28;20036;-67
2021/09/06 08:43:03;;;;;;;19.50;10.82;;;17.90;83.70;;;;;;4929591;29;20761;-67
2021/09/06 08:45:31;;;;;;;16.95;10.50;;;17.90;86.20;;;;;;4928928;29;20020;-67
2021/09/06 08:47:57;;;;;;;17.85;10.13;;;18.00;83.60;;;;;;4926377;29;20060;-67
2021/09/06 08:50:22;;;;;;;16.45;10.52;;;18.00;82.70;;;;;;4926754;29;20115;-68
2021/09/06 08:52:48;;;;;;;15.27;10.23;;;18.10;82.50;;;;;;4927590;29;20126;-68
2021/09/06 08:55:14;;;;;;;16.23;11.43;;;18.30;81.60;;;;;;4927462;29;20035;-68
2021/09/06 08:57:43;;;;;;;16.42;10.90;;;18.30;80.30;;;;;;4931372;28;20067;-68
2021/09/06 09:00:10;;;;;;;17.55;10.48;;;18.40;78.80;;;;;;4926493;29;20027;-68
2021/09/06 09:02:40;;;;;;;15.52;9.95;;;18.50;80.60;;;;;;4923076;28;20602;-67
2021/09/06 09:05:08;;;;;;;15.23;9.50;;;18.60;78.80;;;;;;4928616;28;20046;-68
2021/09/06 09:07:34;;;;;;;16.88;9.07;;;18.70;79.70;;;;;;4929487;29;20024;-68
2021/09/06 09:10:01;;;;;;;16.77;10.05;;;18.80;77.70;;;;;;4925390;29;20764;-68
2021/09/06 09:12:28;;;;;;;12.07;9.50;;;18.80;78.00;;;;;;4934025;29;20039;-67
2021/09/06 09:14:56;;;;;;;12.40;8.25;;;19.00;78.10;;;;;;4923748;29;20024;-67
2021/09/06 09:17:22;;;;;;;13.98;8.73;;;19.00;75.20;;;;;;4932105;29;20085;-68
2021/09/06 09:19:49;;;;;;;14.35;9.60;;;19.10;77.00;;;;;;4932072;29;20035;-67
2021/09/06 09:22:20;;;;;;;11.93;8.23;;;19.30;79.90;;;;;;4930200;29;20507;-67
2021/09/06 09:25:00;;;;;;;14.23;9.18;;;19.40;74.50;;;;;;4932917;29;20027;-68
2021/09/06 09:27:34;;;;;;;12.90;8.65;;;19.40;75.30;;;;;;4931169;29;20104;-68
2021/09/06 09:30:01;;;;;;;15.27;8.40;;;19.50;75.00;;;;;;4930345;29;20046;-68
2021/09/06 09:32:27;;;;;;;13.05;7.60;;;19.60;73.70;;;;;;4930430;28;20044;-68
2021/09/06 09:34:53;;;;;;;10.95;7.78;;;19.70;72.00;;;;;;4927366;29;20121;-67
2021/09/06 09:37:27;;;;;;;11.98;8.60;;;19.90;73.70;;;;;;4925647;29;20091;-68
2021/09/06 09:39:58;;;;;;;12.43;8.27;;;19.80;73.40;;;;;;4930238;29;20040;-68
2021/09/06 09:42:24;;;;;;;12.75;8.98;;;20.00;75.70;;;;;;4928957;29;20023;-67
2021/09/06 09:44:54;;;;;;;14.68;8.57;;;20.00;73.10;;;;;;4926430;28;20031;-67
2021/09/06 09:47:23;;;;;;;12.85;8.40;;;20.10;74.80;;;;;;4927885;29;20125;-68
2021/09/06 09:49:49;;;;;;;13.93;7.88;;;20.10;73.20;;;;;;4929089;29;20199;-67
2021/09/06 09:52:20;;;;;;;14.75;9.05;;;20.30;72.90;;;;;;4924490;28;20480;-68
2021/09/06 09:54:48;;;;;;;11.30;7.32;;;20.40;73.70;;;;;;4929991;29;20047;-68
2021/09/06 09:57:14;;;;;;;11.38;6.90;;;20.50;67.80;;;;;;4928026;29;20039;-70
2021/09/06 09:59:41;;;;;;;12.95;7.72;;;20.40;67.60;;;;;;4925873;29;20112;-68
2021/09/06 10:02:22;;;;;;;10.18;6.93;;;20.40;72.00;;;;;;4922165;29;20050;-67
2021/09/06 10:04:54;;;;;;;10.18;5.88;;;20.50;69.70;;;;;;4923321;29;20037;-68
2021/09/06 10:07:23;;;;;;;9.20;6.50;;;20.50;63.70;;;;;;4925239;29;20087;-68
2021/09/06 10:09:48;;;;;;;10.55;6.55;;;20.50;63.90;;;;;;4928035;29;20079;-68
2021/09/06 10:12:22;;;;;;;8.68;6.63;;;20.60;66.10;;;;;;4925258;29;20031;-67
2021/09/06 10:15:01;;;;;;;10.15;6.50;;;20.70;62.10;;;;;;4928424;29;20397;-68
2021/09/06 10:17:48;;;;;;;8.93;5.78;;;20.80;66.50;;;;;;4892644;29;1102898;-68
2021/09/06 10:20:13;;;;;;;8.60;5.90;;;20.80;63.50;;;;;;4929316;29;20131;-68
2021/09/06 10:22:44;;;;;;;9.23;6.10;;;21.00;63.40;;;;;;4928010;29;20110;-68
2021/09/06 10:25:15;;;;;;;7.50;5.43;;;20.80;60.70;;;;;;4925612;29;20047;-68
2021/09/06 10:27:52;;;;;;;8.20;5.75;;;20.90;61.70;;;;;;4929895;29;20043;-68
2021/09/06 10:30:18;;;;;;;10.07;6.22;;;21.00;59.50;;;;;;4926222;29;20024;-67
2021/09/06 10:32:49;;;;;;;9.25;5.18;;;21.10;63.10;;;;;;4926005;29;20096;-68
2021/09/06 10:35:15;;;;;;;8.23;5.65;;;21.10;60.10;;;;;;4929660;29;20087;-68
2021/09/06 10:37:42;;;;;;;9.65;6.32;;;21.20;61.20;;;;;;4927575;29;20036;-68
2021/09/06 10:40:10;;;;;;;9.93;5.60;;;21.30;60.40;;;;;;4927685;29;20104;-67
2021/09/06 10:42:39;;;;;;;8.43;5.70;;;21.30;56.80;;;;;;4924047;29;20042;-68
2021/09/06 10:45:07;;;;;;;7.18;5.25;;;21.10;56.30;;;;;;4928215;29;20019;-68
2021/09/06 10:47:40;;;;;;;9.77;5.93;;;21.10;54.20;;;;;;4928367;29;20035;-67
2021/09/06 10:50:19;;;;;;;8.05;6.00;;;21.20;57.70;;;;;;4932754;29;20087;-68
2021/09/06 10:52:47;;;;;;;7.57;5.22;;;21.30;59.90;;;;;;4928590;29;20023;-68
2021/09/06 10:55:14;;;;;;;8.73;5.90;;;21.40;61.00;;;;;;4926409;29;20090;-68
2021/09/06 10:57:41;;;;;;;11.55;5.88;;;21.40;56.80;;;;;;4931697;29;20126;-68
2021/09/06 11:00:14;;;;;;;8.48;5.72;;;21.40;54.60;;;;;;4937132;29;20059;-67
2021/09/06 11:02:41;;;;;;;7.65;5.60;;;21.30;52.50;;;;;;4923773;29;20400;-67
2021/09/06 11:05:07;;;;;;;14.38;5.82;;;21.20;53.80;;;;;;4927535;29;20062;-68
2021/09/06 11:07:33;;;;;;;9.25;5.43;;;21.30;54.60;;;;;;4930506;29;20389;-68
2021/09/06 11:10:13;;;;;;;7.10;4.85;;;21.40;55.80;;;;;;4930382;29;20034;-68
2021/09/06 11:12:40;;;;;;;8.15;5.50;;;21.50;55.30;;;;;;4929626;29;20102;-68
2021/09/06 11:15:06;;;;;;;7.18;5.03;;;21.60;58.70;;;;;;4932137;29;20488;-67
2021/09/06 11:17:31;;;;;;;6.18;5.18;;;21.60;55.70;;;;;;4931448;29;20127;-67
2021/09/06 11:19:58;;;;;;;9.07;5.63;;;21.60;59.50;;;;;;4928044;29;20154;-69
2021/09/06 11:22:27;;;;;;;7.88;5.15;;;21.70;55.80;;;;;;4928094;29;20063;-67
2021/09/06 11:25:01;;;;;;;7.88;5.53;;;21.70;54.90;;;;;;4926483;29;20020;-68
2021/09/06 11:27:32;;;;;;;7.82;5.35;;;21.60;53.70;;;;;;4924327;29;20052;-68
2021/09/06 11:29:59;;;;;;;10.23;5.78;;;21.70;55.50;;;;;;4933729;29;20036;-68
2021/09/06 11:32:26;;;;;;;8.23;5.35;;;21.70;55.20;;;;;;4929620;28;20385;-68
2021/09/06 11:35:10;;;;;;;7.35;5.70;;;21.70;56.90;;;;;;4934962;29;20039;-68
2021/09/06 11:37:36;;;;;;;8.27;5.55;;;21.80;59.60;;;;;;4933841;29;20042;-67
2021/09/06 11:40:04;;;;;;;7.70;5.20;;;21.80;59.40;;;;;;4932001;29;20036;-67
2021/09/06 11:42:30;;;;;;;6.88;5.30;;;21.80;53.20;;;;;;4931736;29;20026;-68
2021/09/06 11:44:57;;;;;;;7.93;5.40;;;21.70;56.70;;;;;;4935271;29;20107;-68
2021/09/06 11:47:23;;;;;;;6.95;5.32;;;21.80;56.70;;;;;;4923948;29;20020;-68
2021/09/06 11:49:53;;;;;;;7.47;4.57;;;21.80;51.00;;;;;;4934103;29;20076;-68
2021/09/06 11:52:28;;;;;;;7.82;5.18;;;21.80;53.30;;;;;;4930198;29;20028;-68
2021/09/06 11:54:53;;;;;;;6.60;4.35;;;21.90;52.00;;;;;;4929660;29;20023;-67
2021/09/06 11:57:24;;;;;;;7.93;4.05;;;22.00;50.30;;;;;;4932362;29;20020;-68
2021/09/06 11:59:54;;;;;;;5.55;4.25;;;22.10;48.80;;;;;;4930572;29;20372;-68
2021/09/06 12:02:21;;;;;;;5.80;4.63;;;21.90;47.40;;;;;;4934168;29;20039;-68
2021/09/06 12:04:47;;;;;;;4.68;3.97;;;21.90;47.00;;;;;;4930638;29;21029;-70
2021/09/06 12:07:16;;;;;;;5.82;4.20;;;22.00;48.50;;;;;;4929072;29;20557;-68
2021/09/06 12:09:43;;;;;;;7.15;4.57;;;22.10;48.70;;;;;;4932778;29;20371;-68
2021/09/06 12:12:20;;;;;;;5.63;4.03;;;22.20;47.90;;;;;;4934327;29;20098;-68
2021/09/06 12:14:47;;;;;;;4.55;3.60;;;22.20;46.20;;;;;;4930284;28;20279;-68
2021/09/06 12:17:13;;;;;;;6.38;4.50;;;22.20;47.10;;;;;;4934972;29;20481;-68
2021/09/06 12:19:47;;;;;;;5.45;3.75;;;22.10;47.40;;;;;;4930809;29;20039;-69
2021/09/06 12:22:17;;;;;;;7.00;4.32;;;22.20;43.20;;;;;;4933616;29;20127;-68
2021/09/06 12:24:44;;;;;;;6.60;4.63;;;22.10;46.60;;;;;;4929986;29;20031;-68
2021/09/06 12:27:14;;;;;;;5.07;3.63;;;22.20;47.50;;;;;;4934288;29;20024;-68
2021/09/06 12:29:41;;;;;;;7.90;4.28;;;22.20;49.30;;;;;;4932136;29;20020;-68
2021/09/06 12:32:08;;;;;;;6.05;3.90;;;22.30;45.40;;;;;;4931986;28;20040;-69
2021/09/06 12:34:35;;;;;;;5.70;3.95;;;22.30;44.20;;;;;;4932781;29;20055;-68
2021/09/06 12:37:02;;;;;;;4.93;3.80;;;22.40;45.40;;;;;;4929379;29;20020;-68
2021/09/06 12:39:33;;;;;;;5.32;3.85;;;22.60;44.30;;;;;;4927375;29;20028;-68
2021/09/06 12:42:00;;;;;;;6.25;3.70;;;22.70;49.20;;;;;;4934788;29;20063;-68
2021/09/06 12:44:26;;;;;;;5.63;3.83;;;22.80;41.20;;;;;;4930049;29;20039;-68